createdAt,value
2023-03-03T00:00:51.774Z,5.92
2023-03-03T00:03:25.357Z,5.94
2023-03-03T00:05:53.082Z,5.89
2023-03-03T00:08:21.709Z,5.83
2023-03-03T00:10:49.108Z,5.88
2023-03-03T00:13:19.583Z,5.79
2023-03-03T00:15:47.203Z,5.71
2023-03-03T00:18:36.713Z,5.74
2023-03-03T00:21:15.368Z,5.72
2023-03-03T00:23:43.366Z,5.77
2023-03-03T00:26:26.459Z,5.72
2023-03-03T00:28:54.688Z,5.60
2023-03-03T00:31:35.670Z,5.55
2023-03-03T00:34:27.407Z,5.55
2023-03-03T00:36:56.973Z,5.62
2023-03-03T00:39:35.633Z,5.60
2023-03-03T00:42:13.424Z,5.59
2023-03-03T00:44:46.074Z,5.60
2023-03-03T00:47:38.088Z,5.59
2023-03-03T00:50:11.463Z,5.55
2023-03-03T00:52:45.751Z,5.38
2023-03-03T00:55:13.328Z,5.42
2023-03-03T00:57:40.612Z,5.36
2023-03-03T01:00:15.611Z,5.39
2023-03-03T01:02:46.464Z,5.49
2023-03-03T01:05:16.024Z,5.53
2023-03-03T01:07:43.715Z,5.59
2023-03-03T01:10:11.685Z,5.56
2023-03-03T01:12:39.483Z,5.46
2023-03-03T01:15:08.822Z,5.46
2023-03-03T01:17:36.961Z,5.48
2023-03-03T01:20:04.708Z,5.41
2023-03-03T01:22:32.138Z,5.38
2023-03-03T01:25:00.322Z,5.27
2023-03-03T01:27:28.661Z,5.40
2023-03-03T01:29:56.706Z,5.33
2023-03-03T01:32:25.417Z,5.39
2023-03-03T01:34:53.361Z,5.37
2023-03-03T01:37:21.405Z,5.39
2023-03-03T01:39:53.187Z,5.43
2023-03-03T01:42:20.991Z,5.36
2023-03-03T01:44:48.434Z,5.38
2023-03-03T01:47:33.923Z,5.36
2023-03-03T01:50:11.165Z,5.33
2023-03-03T01:52:43.188Z,5.39
2023-03-03T01:55:29.202Z,5.37
2023-03-03T01:58:03.878Z,5.37
2023-03-03T02:00:33.179Z,5.40
2023-03-03T02:03:00.967Z,5.31
2023-03-03T02:05:29.121Z,5.32
2023-03-03T02:07:56.604Z,5.29
2023-03-03T02:10:24.008Z,5.23
2023-03-03T02:12:54.665Z,5.28
2023-03-03T02:15:35.990Z,5.25
2023-03-03T02:18:09.440Z,5.20
2023-03-03T02:21:01.818Z,5.10
2023-03-03T02:23:38.367Z,5.13
2023-03-03T02:26:20.607Z,5.19
2023-03-03T02:28:48.950Z,5.11
2023-03-03T02:31:20.788Z,5.09
2023-03-03T02:33:51.250Z,5.10
2023-03-03T02:36:24.579Z,5.10
2023-03-03T02:39:16.535Z,5.09
2023-03-03T02:42:04.827Z,5.20
2023-03-03T02:44:38.614Z,5.14
2023-03-03T02:47:05.915Z,5.14
2023-03-03T02:49:35.568Z,5.10
2023-03-03T02:52:07.099Z,5.11
2023-03-03T02:54:34.701Z,5.14
2023-03-03T02:57:06.182Z,5.10
2023-03-03T02:59:33.548Z,5.05
2023-03-03T03:02:08.864Z,5.03
2023-03-03T03:04:36.278Z,5.03
2023-03-03T03:07:04.769Z,5.02
2023-03-03T03:09:34.001Z,5.01
2023-03-03T03:12:02.556Z,5.08
2023-03-03T03:14:32.465Z,5.03
2023-03-03T03:16:59.874Z,5.06
2023-03-03T03:19:29.240Z,5.05
2023-03-03T03:22:01.301Z,5.04
2023-03-03T03:24:30.130Z,5.03
2023-03-03T03:27:05.666Z,4.97
2023-03-03T03:29:33.419Z,4.95
2023-03-03T03:32:00.868Z,4.99
2023-03-03T03:34:28.287Z,4.99
2023-03-03T03:36:56.655Z,4.97
2023-03-03T03:39:28.282Z,4.97
2023-03-03T03:41:56.483Z,4.94
2023-03-03T03:44:25.187Z,4.99
2023-03-03T03:46:55.468Z,4.94
2023-03-03T03:49:22.888Z,4.97
2023-03-03T03:51:52.073Z,4.86
2023-03-03T03:54:22.633Z,4.79
2023-03-03T03:56:50.561Z,4.84
2023-03-03T03:59:17.947Z,4.86
2023-03-03T04:01:45.279Z,4.85
2023-03-03T04:04:12.634Z,4.85
2023-03-03T04:06:40.549Z,4.94
2023-03-03T04:09:07.980Z,4.94
2023-03-03T04:11:35.723Z,4.85
2023-03-03T04:14:05.466Z,4.84
2023-03-03T04:16:33.626Z,4.88
2023-03-03T04:19:01.052Z,4.78
2023-03-03T04:21:28.731Z,4.57
2023-03-03T04:23:59.008Z,4.46
2023-03-03T04:26:28.666Z,4.37
2023-03-03T04:28:55.955Z,4.29
2023-03-03T04:31:27.976Z,4.25
2023-03-03T04:33:55.614Z,4.32
2023-03-03T04:36:24.487Z,4.27
2023-03-03T04:38:51.971Z,4.27
2023-03-03T04:41:19.767Z,4.10
2023-03-03T04:43:47.404Z,4.11
2023-03-03T04:46:14.865Z,4.09
2023-03-03T04:48:42.404Z,4.08
2023-03-03T04:51:10.964Z,4.18
2023-03-03T04:53:38.815Z,4.15
2023-03-03T04:56:08.190Z,4.20
2023-03-03T04:58:37.188Z,4.23
2023-03-03T05:01:04.732Z,4.21
2023-03-03T05:03:33.098Z,4.13
2023-03-03T05:06:00.793Z,4.13
2023-03-03T05:08:28.068Z,4.18
2023-03-03T05:10:55.457Z,4.19
2023-03-03T05:13:22.886Z,4.25
2023-03-03T05:15:55.581Z,4.26
2023-03-03T05:18:29.549Z,4.27
2023-03-03T05:20:57.034Z,4.19
2023-03-03T05:23:24.903Z,4.22
2023-03-03T05:25:52.389Z,4.26
2023-03-03T05:28:19.782Z,3.99
2023-03-03T05:30:47.105Z,3.80
2023-03-03T05:33:16.290Z,3.80
2023-03-03T05:35:44.362Z,3.78
2023-03-03T05:38:11.734Z,3.72
2023-03-03T05:40:39.611Z,3.78
2023-03-03T05:43:07.263Z,3.80
2023-03-03T05:45:35.396Z,3.84
2023-03-03T05:48:04.087Z,3.77
2023-03-03T05:50:32.202Z,3.83
2023-03-03T05:52:59.674Z,3.93
2023-03-03T05:55:27.159Z,3.88
2023-03-03T05:57:54.950Z,3.90
2023-03-03T06:00:22.833Z,3.88
2023-03-03T06:02:53.207Z,3.83
2023-03-03T06:05:20.603Z,3.96
2023-03-03T06:07:47.897Z,4.13
2023-03-03T06:10:15.197Z,4.20
2023-03-03T06:12:46.582Z,4.31
2023-03-03T06:15:13.987Z,4.43
2023-03-03T06:17:41.286Z,4.38
2023-03-03T06:20:09.247Z,4.31
2023-03-03T06:22:36.537Z,4.50
2023-03-03T06:25:04.191Z,4.68
2023-03-03T06:27:31.451Z,4.88
2023-03-03T06:29:58.776Z,5.36
2023-03-03T06:32:26.352Z,5.66
2023-03-03T06:34:53.817Z,6.71
2023-03-03T06:37:21.140Z,8.09
2023-03-03T06:39:48.516Z,9.34
2023-03-03T06:42:15.752Z,10.18
2023-03-03T06:44:43.091Z,10.61
2023-03-03T06:47:10.393Z,10.88
2023-03-03T06:49:37.677Z,10.85
2023-03-03T06:52:19.026Z,11.05
2023-03-03T06:54:46.384Z,11.84
2023-03-03T06:57:32.036Z,12.54
2023-03-03T07:00:12.705Z,12.84
2023-03-03T07:02:40.237Z,12.80
2023-03-03T07:05:15.633Z,13.04
2023-03-03T07:07:43.298Z,12.63
2023-03-03T07:10:23.914Z,12.06
2023-03-03T07:12:51.188Z,12.10
2023-03-03T07:15:24.605Z,12.35
2023-03-03T07:17:58.210Z,12.26
2023-03-03T07:20:40.084Z,12.95
2023-03-03T07:23:42.696Z,12.77
2023-03-03T07:26:13.492Z,12.92
2023-03-03T07:28:43.372Z,12.90
2023-03-03T07:31:38.362Z,13.00
2023-03-03T07:34:21.755Z,13.45
2023-03-03T07:36:53.581Z,12.60
2023-03-03T07:39:40.710Z,13.35
2023-03-03T07:42:28.478Z,13.18
2023-03-03T07:45:29.120Z,14.02
2023-03-03T07:48:19.664Z,14.94
2023-03-03T07:50:49.146Z,15.57
2023-03-03T07:53:27.654Z,15.32
2023-03-03T07:55:55.150Z,15.56
2023-03-03T07:58:30.704Z,16.46
2023-03-03T08:01:28.612Z,16.82
2023-03-03T08:03:57.004Z,17.06
2023-03-03T08:06:36.344Z,17.92
2023-03-03T08:09:09.831Z,18.23
2023-03-03T08:12:00.965Z,19.03
2023-03-03T08:14:33.921Z,18.47
2023-03-03T08:17:02.597Z,18.82
2023-03-03T08:19:31.128Z,19.43
2023-03-03T08:22:12.165Z,19.29
2023-03-03T08:24:39.507Z,19.78
2023-03-03T08:27:06.911Z,19.61
2023-03-03T08:29:34.304Z,18.72
2023-03-03T08:32:01.698Z,18.85
2023-03-03T08:34:29.121Z,18.72
2023-03-03T08:36:58.470Z,18.53
2023-03-03T08:39:25.880Z,18.59
2023-03-03T08:41:53.210Z,18.80
2023-03-03T08:44:20.742Z,18.28
2023-03-03T08:46:48.114Z,18.74
2023-03-03T08:49:15.753Z,18.32
2023-03-03T08:51:43.159Z,18.64
2023-03-03T08:54:10.636Z,18.43
2023-03-03T08:56:38.005Z,19.24
2023-03-03T08:59:05.404Z,19.07
2023-03-03T09:01:33.177Z,19.26
2023-03-03T09:04:00.617Z,19.30
2023-03-03T09:06:27.898Z,19.42
2023-03-03T09:08:55.354Z,19.91
2023-03-03T09:11:27.589Z,20.14
2023-03-03T09:14:06.624Z,20.25
2023-03-03T09:16:41.108Z,20.44
2023-03-03T09:19:23.100Z,20.54
2023-03-03T09:21:54.732Z,20.71
2023-03-03T09:24:30.015Z,20.44
2023-03-03T09:26:59.056Z,20.42
2023-03-03T09:29:29.316Z,19.44
2023-03-03T09:31:59.035Z,19.73
2023-03-03T09:34:43.245Z,19.37
2023-03-03T09:37:22.495Z,18.87
2023-03-03T09:39:52.292Z,19.14
2023-03-03T09:42:26.077Z,19.35
2023-03-03T09:45:12.102Z,18.86
2023-03-03T09:48:08.391Z,18.43
2023-03-03T09:51:21.562Z,18.73
2023-03-03T09:54:24.674Z,18.76
2023-03-03T09:57:05.570Z,17.99
2023-03-03T10:00:00.935Z,17.33
2023-03-03T10:02:51.856Z,17.45
2023-03-03T10:05:39.074Z,17.79
2023-03-03T10:08:31.102Z,17.48
2023-03-03T10:11:05.112Z,17.29
2023-03-03T10:14:13.027Z,16.99
2023-03-03T10:17:12.610Z,17.08
2023-03-03T10:20:00.183Z,17.17
2023-03-03T10:22:42.301Z,17.37
2023-03-03T10:25:47.755Z,17.78
2023-03-03T10:28:30.265Z,17.38
2023-03-03T10:31:17.235Z,17.34
2023-03-03T10:34:23.653Z,17.29
2023-03-03T10:37:15.476Z,17.34
2023-03-03T10:39:42.785Z,17.23
2023-03-03T10:42:22.446Z,16.79
2023-03-03T10:45:18.205Z,17.51
2023-03-03T10:48:04.488Z,17.32
2023-03-03T10:50:56.696Z,16.86
2023-03-03T10:53:37.646Z,16.59
2023-03-03T10:56:14.568Z,15.88
2023-03-03T10:59:06.425Z,16.09
2023-03-03T11:01:49.964Z,16.01
2023-03-03T11:04:21.917Z,16.19
2023-03-03T11:07:03.665Z,16.05
2023-03-03T11:09:37.857Z,16.39
2023-03-03T11:12:23.613Z,16.03
2023-03-03T11:14:56.594Z,15.60
2023-03-03T11:17:47.922Z,15.63
2023-03-03T11:20:46.156Z,15.35
2023-03-03T11:23:37.988Z,15.82
2023-03-03T11:26:11.364Z,15.46
2023-03-03T11:29:00.602Z,15.49
2023-03-03T11:32:18.403Z,15.43
2023-03-03T11:35:13.444Z,15.45
2023-03-03T11:38:17.398Z,15.26
2023-03-03T11:40:56.017Z,15.24
2023-03-03T11:43:41.625Z,15.18
2023-03-03T11:46:20.534Z,15.25
2023-03-03T11:48:53.792Z,15.16
2023-03-03T11:51:35.802Z,15.34
2023-03-03T11:54:12.569Z,15.29
2023-03-03T11:56:42.719Z,15.27
2023-03-03T11:59:18.936Z,15.59
2023-03-03T12:01:54.569Z,15.15
2023-03-03T12:04:40.685Z,15.54
2023-03-03T12:07:20.151Z,15.63
2023-03-03T12:10:09.201Z,15.66
2023-03-03T12:12:42.803Z,15.26
2023-03-03T12:15:22.155Z,15.15
2023-03-03T12:17:55.287Z,15.13
2023-03-03T12:20:31.288Z,15.25
2023-03-03T12:23:25.531Z,15.09
2023-03-03T12:26:11.321Z,15.19
2023-03-03T12:28:44.995Z,15.21
2023-03-03T12:31:42.636Z,15.34
2023-03-03T12:34:33.676Z,15.47
2023-03-03T12:37:36.976Z,15.36
2023-03-03T12:40:21.514Z,15.64
2023-03-03T12:43:07.366Z,15.75
2023-03-03T12:45:34.736Z,15.82
2023-03-03T12:48:24.374Z,15.69
2023-03-03T12:51:00.837Z,15.92
2023-03-03T12:53:46.133Z,16.20
2023-03-03T12:56:26.236Z,16.44
2023-03-03T12:59:11.487Z,16.80
2023-03-03T13:02:06.630Z,16.97
2023-03-03T13:04:44.500Z,16.77
2023-03-03T13:07:28.993Z,16.93
2023-03-03T13:10:05.332Z,16.91
2023-03-03T13:12:39.789Z,17.25
2023-03-03T13:15:15.939Z,17.15
2023-03-03T13:18:10.708Z,16.65
2023-03-03T13:21:13.094Z,16.37
2023-03-03T13:23:48.544Z,16.99
2023-03-03T13:26:25.005Z,16.91
2023-03-03T13:29:28.496Z,16.83
2023-03-03T13:31:59.850Z,17.14
2023-03-03T13:34:49.224Z,16.85
2023-03-03T13:37:24.652Z,16.76
2023-03-03T13:40:15.017Z,17.06
2023-03-03T13:42:49.140Z,17.01
2023-03-03T13:45:30.687Z,16.65
2023-03-03T13:48:04.211Z,16.41
2023-03-03T13:50:56.989Z,15.75
2023-03-03T13:53:27.438Z,15.58
2023-03-03T13:56:03.884Z,15.69
2023-03-03T13:58:45.502Z,15.65
2023-03-03T14:01:23.566Z,16.01
2023-03-03T14:04:00.763Z,16.00
2023-03-03T14:06:29.364Z,15.94
2023-03-03T14:09:15.462Z,15.74
2023-03-03T14:12:04.055Z,15.63
2023-03-03T14:14:47.389Z,15.59
2023-03-03T14:17:26.985Z,15.29
2023-03-03T14:20:04.996Z,15.14
2023-03-03T14:22:53.757Z,15.11
2023-03-03T14:25:21.198Z,15.42
2023-03-03T14:27:48.450Z,15.54
2023-03-03T14:30:29.508Z,15.32
2023-03-03T14:33:09.401Z,15.21
2023-03-03T14:35:57.022Z,14.75
2023-03-03T14:38:37.661Z,14.80
2023-03-03T14:41:15.633Z,14.84
2023-03-03T14:44:05.576Z,14.71
2023-03-03T14:46:44.983Z,14.72
2023-03-03T14:49:30.728Z,14.77
2023-03-03T14:52:11.930Z,14.78
2023-03-03T14:54:42.914Z,14.70
2023-03-03T14:57:16.122Z,14.76
2023-03-03T15:00:20.507Z,14.61
2023-03-03T15:02:51.808Z,14.59
2023-03-03T15:05:19.432Z,14.56
2023-03-03T15:07:56.776Z,14.38
2023-03-03T15:10:34.932Z,14.32
2023-03-03T15:13:31.293Z,14.26
2023-03-03T15:16:31.017Z,14.25
2023-03-03T15:19:00.426Z,14.35
2023-03-03T15:21:35.344Z,14.44
2023-03-03T15:24:13.577Z,14.43
2023-03-03T15:26:56.845Z,14.31
2023-03-03T15:30:02.124Z,14.50
2023-03-03T15:32:40.531Z,14.29
2023-03-03T15:35:14.155Z,14.59
2023-03-03T15:38:09.769Z,14.37
2023-03-03T15:40:44.924Z,14.23
2023-03-03T15:43:30.506Z,14.42
2023-03-03T15:46:00.930Z,14.12
2023-03-03T15:48:53.994Z,14.13
2023-03-03T15:52:06.328Z,14.03
2023-03-03T15:54:48.332Z,14.01
2023-03-03T15:57:44.354Z,13.93
2023-03-03T16:00:30.050Z,13.78
2023-03-03T16:03:21.661Z,13.74
2023-03-03T16:06:18.564Z,13.76
2023-03-03T16:09:00.576Z,13.71
2023-03-03T16:11:47.428Z,13.58
2023-03-03T16:14:40.916Z,13.55
2023-03-03T16:17:23.054Z,13.41
2023-03-03T16:19:53.550Z,13.39
2023-03-03T16:22:20.797Z,13.34
2023-03-03T16:25:06.834Z,13.31
2023-03-03T16:27:42.961Z,13.26
2023-03-03T16:30:33.143Z,13.21
2023-03-03T16:33:24.363Z,13.27
2023-03-03T16:35:57.892Z,13.22
2023-03-03T16:38:38.408Z,13.16
2023-03-03T16:41:18.907Z,13.04
2023-03-03T16:44:11.535Z,12.88
2023-03-03T16:46:42.385Z,12.83
2023-03-03T16:49:40.349Z,12.78
2023-03-03T16:52:12.775Z,12.76
2023-03-03T16:54:59.934Z,12.61
2023-03-03T16:57:29.894Z,12.49
2023-03-03T17:00:06.683Z,12.41
2023-03-03T17:02:52.650Z,12.33
2023-03-03T17:05:57.942Z,12.36
2023-03-03T17:08:52.863Z,12.28
2023-03-03T17:11:41.141Z,12.24
2023-03-03T17:14:17.144Z,12.18
2023-03-03T17:16:53.445Z,12.10
2023-03-03T17:19:21.569Z,12.08
2023-03-03T17:22:07.871Z,11.97
2023-03-03T17:25:00.763Z,11.91
2023-03-03T17:27:36.683Z,11.86
2023-03-03T17:30:32.169Z,11.83
2023-03-03T17:33:13.689Z,11.79
2023-03-03T17:35:59.004Z,11.73
2023-03-03T17:38:32.058Z,11.70
2023-03-03T17:41:09.198Z,11.67
2023-03-03T17:43:43.317Z,11.59
2023-03-03T17:46:18.674Z,11.50
2023-03-03T17:49:18.353Z,11.48
2023-03-03T17:52:07.366Z,11.34
2023-03-03T17:54:53.394Z,11.27
2023-03-03T17:57:41.947Z,11.26
2023-03-03T18:00:32.211Z,11.29
2023-03-03T18:03:34.928Z,11.29
2023-03-03T18:06:18.670Z,11.19
2023-03-03T18:09:13.678Z,11.17
2023-03-03T18:12:01.004Z,11.12
2023-03-03T18:15:03.525Z,11.07
2023-03-03T18:18:05.338Z,11.08
2023-03-03T18:20:59.852Z,11.02
2023-03-03T18:23:32.103Z,10.95
2023-03-03T18:26:23.884Z,10.88
2023-03-03T18:28:52.682Z,10.78
2023-03-03T18:31:24.472Z,10.80
2023-03-03T18:34:00.706Z,10.75
2023-03-03T18:36:27.967Z,10.69
2023-03-03T18:38:57.587Z,10.53
2023-03-03T18:41:30.595Z,10.47
2023-03-03T18:44:00.934Z,10.47
2023-03-03T18:46:28.194Z,10.47
2023-03-03T18:49:00.710Z,10.43
2023-03-03T18:51:34.254Z,10.44
2023-03-03T18:54:31.342Z,10.36
2023-03-03T18:57:03.845Z,10.26
2023-03-03T18:59:34.120Z,10.15
2023-03-03T19:02:13.338Z,10.17
2023-03-03T19:04:49.136Z,10.03
2023-03-03T19:07:27.601Z,10.03
2023-03-03T19:10:07.769Z,9.91
2023-03-03T19:12:58.933Z,9.90
2023-03-03T19:15:29.333Z,9.87
2023-03-03T19:18:02.542Z,9.80
2023-03-03T19:20:46.230Z,9.76
2023-03-03T19:23:34.284Z,9.70
2023-03-03T19:26:25.910Z,9.69
2023-03-03T19:29:22.761Z,9.64
2023-03-03T19:32:08.963Z,9.59
2023-03-03T19:34:50.541Z,9.60
2023-03-03T19:37:58.264Z,9.47
2023-03-03T19:40:37.172Z,9.43
2023-03-03T19:43:23.352Z,9.39
2023-03-03T19:46:00.051Z,9.33
2023-03-03T19:48:36.581Z,9.25
2023-03-03T19:51:03.902Z,9.02
2023-03-03T19:53:45.416Z,9.13
2023-03-03T19:56:31.043Z,9.37
2023-03-03T19:59:06.942Z,9.30
2023-03-03T20:01:46.956Z,9.20
2023-03-03T20:04:46.842Z,9.06
2023-03-03T20:07:55.208Z,9.07
2023-03-03T20:10:39.685Z,8.93
2023-03-03T20:13:15.673Z,8.86
2023-03-03T20:16:15.073Z,8.86
2023-03-03T20:19:02.513Z,8.78
2023-03-03T20:21:32.478Z,8.76
2023-03-03T20:24:23.664Z,8.74
2023-03-03T20:26:59.872Z,8.80
2023-03-03T20:29:45.841Z,8.77
2023-03-03T20:32:35.313Z,8.73
2023-03-03T20:35:23.345Z,8.78
2023-03-03T20:38:29.791Z,8.88
2023-03-03T20:41:59.000Z,8.87
2023-03-03T20:44:52.090Z,8.79
2023-03-03T20:47:40.654Z,8.76
2023-03-03T20:50:39.744Z,8.66
2023-03-03T20:53:36.804Z,8.62
2023-03-03T20:56:10.029Z,8.63
2023-03-03T20:58:51.259Z,8.60
2023-03-03T21:01:59.177Z,8.63
2023-03-03T21:04:30.324Z,8.62
2023-03-03T21:06:59.124Z,8.72
2023-03-03T21:09:33.261Z,8.68
2023-03-03T21:12:04.599Z,8.68
2023-03-03T21:14:38.581Z,8.63
2023-03-03T21:17:26.972Z,8.58
2023-03-03T21:19:54.371Z,8.51
2023-03-03T21:22:21.975Z,8.51
2023-03-03T21:24:54.796Z,8.56
2023-03-03T21:27:33.645Z,8.60
2023-03-03T21:30:10.546Z,8.61
2023-03-03T21:32:46.016Z,8.55
2023-03-03T21:35:15.697Z,8.53
2023-03-03T21:37:54.185Z,8.53
2023-03-03T21:40:27.461Z,8.57
2023-03-03T21:42:57.855Z,8.64
2023-03-03T21:45:26.132Z,8.68
2023-03-03T21:47:55.099Z,8.65
2023-03-03T21:50:24.592Z,8.63
2023-03-03T21:52:51.918Z,8.60
2023-03-03T21:55:19.282Z,8.55
2023-03-03T21:57:46.588Z,8.53
2023-03-03T22:00:14.261Z,8.57
2023-03-03T22:02:43.525Z,8.60
2023-03-03T22:05:10.933Z,8.63
2023-03-03T22:07:38.272Z,8.63
2023-03-03T22:10:07.456Z,8.72
2023-03-03T22:12:34.804Z,8.76
2023-03-03T22:15:02.148Z,8.75
2023-03-03T22:17:31.385Z,8.73
2023-03-03T22:19:59.717Z,8.69
2023-03-03T22:22:27.006Z,8.70
2023-03-03T22:24:54.423Z,8.69
2023-03-03T22:27:21.720Z,8.74
2023-03-03T22:29:49.058Z,8.67
2023-03-03T22:32:16.489Z,8.74
2023-03-03T22:34:44.210Z,8.70
2023-03-03T22:37:11.505Z,8.74
2023-03-03T22:39:38.845Z,8.72
2023-03-03T22:42:06.128Z,8.66
2023-03-03T22:44:33.503Z,8.68
2023-03-03T22:47:00.774Z,8.65
2023-03-03T22:49:28.282Z,8.63
2023-03-03T22:51:58.622Z,8.69
2023-03-03T22:54:26.011Z,8.70
2023-03-03T22:56:53.277Z,8.70
2023-03-03T22:59:20.580Z,8.68
2023-03-03T23:01:47.911Z,8.65
2023-03-03T23:04:15.407Z,8.66
2023-03-03T23:06:47.167Z,8.57
2023-03-03T23:09:14.822Z,8.56
2023-03-03T23:11:42.177Z,8.47
2023-03-03T23:14:09.527Z,8.47
2023-03-03T23:16:36.847Z,8.44
2023-03-03T23:19:04.180Z,8.44
2023-03-03T23:21:31.598Z,8.48
2023-03-03T23:24:01.545Z,8.50
2023-03-03T23:26:28.815Z,8.43
2023-03-03T23:28:56.423Z,8.38
2023-03-03T23:31:25.566Z,8.41
2023-03-03T23:33:53.006Z,8.42
2023-03-03T23:36:20.303Z,8.34
2023-03-03T23:38:48.011Z,8.29
2023-03-03T23:41:15.269Z,8.30
2023-03-03T23:43:42.585Z,8.21
2023-03-03T23:46:09.932Z,8.12
2023-03-03T23:48:37.329Z,8.10
2023-03-03T23:51:04.720Z,8.21
2023-03-03T23:53:32.104Z,8.28
2023-03-03T23:55:59.343Z,8.30
2023-03-03T23:58:26.656Z,8.32
